createdAt,value
2022-12-04T00:01:29.131Z,98544.96
2022-12-04T00:04:00.657Z,98543.95
2022-12-04T00:06:29.296Z,98546.93
2022-12-04T00:08:57.657Z,98542.38
2022-12-04T00:11:28.675Z,98541.02
2022-12-04T00:14:02.971Z,98544.37
2022-12-04T00:16:35.491Z,98545.95
2022-12-04T00:19:05.054Z,98547.93
2022-12-04T00:21:33.097Z,98546.20
2022-12-04T00:24:01.470Z,98545.08
2022-12-04T00:26:31.334Z,98545.16
2022-12-04T00:28:59.897Z,98545.87
2022-12-04T00:31:30.612Z,98544.71
2022-12-04T00:33:59.197Z,98545.96
2022-12-04T00:36:28.946Z,98540.27
2022-12-04T00:39:00.048Z,98542.92
2022-12-04T00:41:30.226Z,98548.72
2022-12-04T00:43:59.786Z,98554.33
2022-12-04T00:46:27.957Z,98558.78
2022-12-04T00:48:56.267Z,98562.28
2022-12-04T00:51:25.418Z,98556.88
2022-12-04T00:53:54.133Z,98553.86
2022-12-04T00:56:25.740Z,98550.08
2022-12-04T00:58:56.636Z,98547.79
2022-12-04T01:01:26.044Z,98545.97
2022-12-04T01:03:54.969Z,98545.62
2022-12-04T01:06:26.090Z,98546.04
2022-12-04T01:08:55.013Z,98548.71
2022-12-04T01:11:24.767Z,98550.14
2022-12-04T01:13:53.571Z,98549.82
2022-12-04T01:16:31.111Z,98548.88
2022-12-04T01:18:59.512Z,98547.88
2022-12-04T01:21:27.939Z,98549.55
2022-12-04T01:23:56.765Z,98546.73
2022-12-04T01:26:25.292Z,98542.55
2022-12-04T01:28:53.462Z,98538.98
2022-12-04T01:31:23.150Z,98538.10
2022-12-04T01:33:51.638Z,98540.61
2022-12-04T01:36:23.516Z,98534.15
2022-12-04T01:38:52.496Z,98533.89
2022-12-04T01:41:26.427Z,98528.64
2022-12-04T01:44:21.602Z,98527.83
2022-12-04T01:46:57.724Z,98529.15
2022-12-04T01:49:31.745Z,98529.83
2022-12-04T01:52:14.165Z,98521.45
2022-12-04T01:54:51.655Z,98517.06
2022-12-04T01:57:22.140Z,98518.35
2022-12-04T01:59:57.707Z,98518.90
2022-12-04T02:02:32.170Z,98512.36
2022-12-04T02:05:02.316Z,98514.59
2022-12-04T02:07:31.079Z,98511.98
2022-12-04T02:10:03.988Z,98512.64
2022-12-04T02:13:07.693Z,98515.06
2022-12-04T02:15:46.324Z,98516.85
2022-12-04T02:18:41.199Z,98516.52
2022-12-04T02:21:16.489Z,98514.21
2022-12-04T02:23:47.592Z,98510.13
2022-12-04T02:26:40.520Z,98509.05
2022-12-04T02:29:42.566Z,98510.38
2022-12-04T02:32:22.807Z,98509.20
2022-12-04T02:35:00.331Z,98513.60
2022-12-04T02:37:56.245Z,98515.27
2022-12-04T02:40:31.767Z,98511.95
2022-12-04T02:43:12.505Z,98507.27
2022-12-04T02:45:46.651Z,98508.30
2022-12-04T02:48:19.718Z,98510.04
2022-12-04T02:50:51.324Z,98510.21
2022-12-04T02:53:35.118Z,98501.47
2022-12-04T02:56:14.250Z,98500.36
2022-12-04T02:58:49.295Z,98505.20
2022-12-04T03:01:23.705Z,98510.09
2022-12-04T03:04:06.443Z,98510.22
2022-12-04T03:06:38.471Z,98500.89
2022-12-04T03:09:20.142Z,98501.17
2022-12-04T03:11:55.360Z,98494.73
2022-12-04T03:14:33.015Z,98492.77
2022-12-04T03:17:10.503Z,98497.29
2022-12-04T03:19:51.191Z,98499.93
2022-12-04T03:22:22.126Z,98498.05
2022-12-04T03:24:55.572Z,98496.66
2022-12-04T03:27:35.754Z,98502.67
2022-12-04T03:30:07.925Z,98506.45
2022-12-04T03:33:10.856Z,98503.79
2022-12-04T03:35:47.765Z,98500.96
2022-12-04T03:38:15.816Z,98502.09
2022-12-04T03:40:46.690Z,98501.03
2022-12-04T03:43:29.296Z,98499.67
2022-12-04T03:46:15.926Z,98501.70
2022-12-04T03:49:00.836Z,98501.46
2022-12-04T03:51:48.554Z,98498.13
2022-12-04T03:54:21.533Z,98494.53
2022-12-04T03:57:06.701Z,98489.59
2022-12-04T03:59:43.851Z,98484.84
2022-12-04T04:02:18.330Z,98484.45
2022-12-04T04:04:49.653Z,98483.08
2022-12-04T04:07:38.320Z,98485.63
2022-12-04T04:10:13.516Z,98487.45
2022-12-04T04:13:09.699Z,98486.45
2022-12-04T04:15:58.541Z,98492.88
2022-12-04T04:18:47.978Z,98493.13
2022-12-04T04:21:39.576Z,98489.95
2022-12-04T04:24:18.317Z,98489.18
2022-12-04T04:26:49.619Z,98494.71
2022-12-04T04:29:17.792Z,98498.90
2022-12-04T04:32:00.495Z,98497.37
2022-12-04T04:34:41.477Z,98493.00
2022-12-04T04:37:43.433Z,98488.13
2022-12-04T04:40:26.013Z,98486.75
2022-12-04T04:43:26.754Z,98490.00
2022-12-04T04:46:01.553Z,98494.66
2022-12-04T04:48:34.628Z,98496.12
2022-12-04T04:51:04.867Z,98495.77
2022-12-04T04:53:42.421Z,98498.52
2022-12-04T04:56:10.882Z,98502.25
2022-12-04T04:58:39.106Z,98503.25
2022-12-04T05:01:13.871Z,98506.42
2022-12-04T05:03:42.928Z,98507.36
2022-12-04T05:06:10.967Z,98509.17
2022-12-04T05:08:39.736Z,98501.95
2022-12-04T05:11:13.178Z,98495.95
2022-12-04T05:13:42.299Z,98492.29
2022-12-04T05:16:15.515Z,98490.70
2022-12-04T05:19:06.890Z,98487.62
2022-12-04T05:21:35.012Z,98482.56
2022-12-04T05:24:03.054Z,98480.14
2022-12-04T05:26:31.177Z,98483.30
2022-12-04T05:28:59.268Z,98484.91
2022-12-04T05:31:27.404Z,98484.94
2022-12-04T05:33:56.623Z,98483.81
2022-12-04T05:36:24.703Z,98488.09
2022-12-04T05:38:52.921Z,98493.24
2022-12-04T05:41:21.029Z,98493.17
2022-12-04T05:43:49.096Z,98496.20
2022-12-04T05:46:17.269Z,98495.98
2022-12-04T05:48:45.676Z,98492.11
2022-12-04T05:51:13.987Z,98483.72
2022-12-04T05:53:42.240Z,98483.16
2022-12-04T05:56:10.969Z,98481.76
2022-12-04T05:58:39.246Z,98486.21
2022-12-04T06:01:12.997Z,98493.88
2022-12-04T06:03:41.046Z,98497.47
2022-12-04T06:06:23.869Z,98495.36
2022-12-04T06:08:55.486Z,98499.14
2022-12-04T06:11:26.987Z,98500.30
2022-12-04T06:13:55.273Z,98502.85
2022-12-04T06:16:26.622Z,98505.03
2022-12-04T06:18:57.644Z,98507.36
2022-12-04T06:21:28.598Z,98511.89
2022-12-04T06:23:57.386Z,98514.33
2022-12-04T06:26:25.826Z,98516.30
2022-12-04T06:28:58.251Z,98518.24
2022-12-04T06:31:29.047Z,98517.48
2022-12-04T06:33:58.388Z,98516.05
2022-12-04T06:36:26.798Z,98518.17
2022-12-04T06:38:56.634Z,98517.12
2022-12-04T06:41:26.839Z,98510.58
2022-12-04T06:43:55.418Z,98513.21
2022-12-04T06:46:29.801Z,98519.48
2022-12-04T06:49:00.532Z,98515.02
2022-12-04T06:51:32.285Z,98505.53
2022-12-04T06:54:00.873Z,98512.06
2022-12-04T06:56:31.445Z,98521.51
2022-12-04T06:59:01.742Z,98524.89
2022-12-04T07:01:32.082Z,98522.09
2022-12-04T07:04:03.534Z,98517.28
2022-12-04T07:06:34.298Z,98518.73
2022-12-04T07:09:05.198Z,98517.33
2022-12-04T07:11:34.016Z,98511.61
2022-12-04T07:14:02.187Z,98511.77
2022-12-04T07:16:36.663Z,98514.49
2022-12-04T07:19:09.934Z,98517.42
2022-12-04T07:21:38.161Z,98517.02
2022-12-04T07:24:06.993Z,98512.39
2022-12-04T07:26:35.240Z,98507.48
2022-12-04T07:29:04.424Z,98506.95
2022-12-04T07:31:32.579Z,98512.90
2022-12-04T07:34:00.847Z,98515.92
2022-12-04T07:36:29.535Z,98512.55
2022-12-04T07:38:58.544Z,98513.62
2022-12-04T07:41:27.426Z,98514.13
2022-12-04T07:43:55.510Z,98505.91
2022-12-04T07:46:26.932Z,98504.36
2022-12-04T07:48:56.915Z,98503.69
2022-12-04T07:51:28.070Z,98504.54
2022-12-04T07:54:03.616Z,98500.79
2022-12-04T07:56:33.901Z,98497.86
2022-12-04T07:59:02.335Z,98498.63
2022-12-04T08:01:31.522Z,98493.77
2022-12-04T08:04:00.971Z,98493.44
2022-12-04T08:06:32.437Z,98493.98
2022-12-04T08:09:04.801Z,98492.56
2022-12-04T08:11:35.722Z,98491.04
2022-12-04T08:14:05.811Z,98487.39
2022-12-04T08:16:34.846Z,98490.09
2022-12-04T08:19:03.395Z,98492.09
2022-12-04T08:21:32.621Z,98494.02
2022-12-04T08:24:01.695Z,98493.39
2022-12-04T08:26:31.010Z,98494.50
2022-12-04T08:29:01.351Z,98490.32
2022-12-04T08:31:33.090Z,98484.70
2022-12-04T08:34:03.863Z,98483.34
2022-12-04T08:36:32.857Z,98484.02
2022-12-04T08:39:01.023Z,98487.34
2022-12-04T08:41:29.359Z,98481.02
2022-12-04T08:43:58.905Z,98481.73
2022-12-04T08:46:28.298Z,98477.81
2022-12-04T08:48:58.145Z,98471.67
2022-12-04T08:51:29.281Z,98466.64
2022-12-04T08:54:00.214Z,98460.56
2022-12-04T08:56:30.430Z,98457.83
2022-12-04T08:58:59.865Z,98459.13
2022-12-04T09:01:29.458Z,98455.48
2022-12-04T09:03:58.252Z,98451.77
2022-12-04T09:06:26.770Z,98450.17
2022-12-04T09:08:56.694Z,98448.55
2022-12-04T09:11:28.131Z,98445.23
2022-12-04T09:13:56.854Z,98441.17
2022-12-04T09:16:26.399Z,98435.78
2022-12-04T09:18:55.354Z,98433.43
2022-12-04T09:21:25.507Z,98440.79
2022-12-04T09:23:53.773Z,98445.66
2022-12-04T09:26:27.317Z,98451.45
2022-12-04T09:28:59.629Z,98451.34
2022-12-04T09:31:28.929Z,98448.86
2022-12-04T09:34:02.037Z,98444.42
2022-12-04T09:36:30.451Z,98443.48
2022-12-04T09:38:58.839Z,98449.07
2022-12-04T09:41:45.968Z,98453.20
2022-12-04T09:44:31.461Z,98453.28
2022-12-04T09:47:02.659Z,98456.36
2022-12-04T09:49:47.342Z,98455.61
2022-12-04T09:52:32.031Z,98454.09
2022-12-04T09:55:03.318Z,98451.91
2022-12-04T09:57:45.507Z,98446.09
2022-12-04T10:00:17.034Z,98436.30
2022-12-04T10:02:51.975Z,98428.65
2022-12-04T10:05:35.472Z,98425.30
2022-12-04T10:08:17.104Z,98424.64
2022-12-04T10:11:10.006Z,98435.58
2022-12-04T10:13:56.692Z,98447.25
2022-12-04T10:16:39.155Z,98443.21
2022-12-04T10:19:29.299Z,98437.84
2022-12-04T10:22:07.090Z,98430.27
2022-12-04T10:24:57.005Z,98431.36
2022-12-04T10:27:34.152Z,98419.95
2022-12-04T10:30:24.221Z,98415.48
2022-12-04T10:33:13.445Z,98414.41
2022-12-04T10:35:43.892Z,98410.62
2022-12-04T10:38:21.460Z,98401.65
2022-12-04T10:41:00.071Z,98394.91
2022-12-04T10:43:43.239Z,98398.90
2022-12-04T10:46:33.440Z,98397.86
2022-12-04T10:49:09.643Z,98398.14
2022-12-04T10:51:42.781Z,98392.28
2022-12-04T10:54:27.325Z,98383.20
2022-12-04T10:57:02.708Z,98382.09
2022-12-04T10:59:43.633Z,98383.96
2022-12-04T11:02:19.530Z,98375.61
2022-12-04T11:05:05.422Z,98367.28
2022-12-04T11:07:45.417Z,98362.60
2022-12-04T11:10:32.108Z,98357.49
2022-12-04T11:13:23.705Z,98355.89
2022-12-04T11:15:56.902Z,98352.02
2022-12-04T11:18:35.641Z,98347.86
2022-12-04T11:21:06.129Z,98348.57
2022-12-04T11:23:48.946Z,98338.17
2022-12-04T11:26:42.694Z,98329.65
2022-12-04T11:29:17.953Z,98328.75
2022-12-04T11:31:52.380Z,98330.44
2022-12-04T11:34:25.506Z,98327.80
2022-12-04T11:36:58.150Z,98324.80
2022-12-04T11:39:33.651Z,98325.02
2022-12-04T11:42:05.650Z,98322.66
2022-12-04T11:44:36.365Z,98327.56
2022-12-04T11:47:07.036Z,98332.48
2022-12-04T11:49:39.510Z,98332.39
2022-12-04T11:52:29.388Z,98330.86
2022-12-04T11:55:08.752Z,98325.30
2022-12-04T11:57:51.810Z,98322.84
2022-12-04T12:00:22.989Z,98319.89
2022-12-04T12:03:13.606Z,98314.64
2022-12-04T12:05:53.800Z,98310.83
2022-12-04T12:08:48.153Z,98304.41
2022-12-04T12:11:36.440Z,98306.34
2022-12-04T12:14:32.562Z,98303.21
2022-12-04T12:17:23.724Z,98299.08
2022-12-04T12:20:16.014Z,98295.45
2022-12-04T12:23:03.282Z,98287.14
2022-12-04T12:25:40.378Z,98287.41
2022-12-04T12:28:16.551Z,98287.88
2022-12-04T12:31:15.850Z,98287.80
2022-12-04T12:33:52.238Z,98282.38
2022-12-04T12:36:22.772Z,98278.30
2022-12-04T12:39:03.664Z,98273.50
2022-12-04T12:41:39.411Z,98272.48
2022-12-04T12:44:17.805Z,98275.28
2022-12-04T12:47:00.733Z,98279.97
2022-12-04T12:49:39.202Z,98271.66
2022-12-04T12:52:17.427Z,98276.39
2022-12-04T12:54:51.161Z,98275.55
2022-12-04T12:57:26.846Z,98270.21
2022-12-04T13:00:05.097Z,98269.86
2022-12-04T13:02:43.411Z,98268.83
2022-12-04T13:05:14.574Z,98268.20
2022-12-04T13:07:53.351Z,98268.76
2022-12-04T13:10:31.805Z,98268.29
2022-12-04T13:13:02.739Z,98270.93
2022-12-04T13:15:41.468Z,98269.56
2022-12-04T13:18:20.439Z,98268.54
2022-12-04T13:20:54.820Z,98260.92
2022-12-04T13:23:28.848Z,98262.17
2022-12-04T13:26:07.978Z,98257.52
2022-12-04T13:28:45.387Z,98258.59
2022-12-04T13:31:31.250Z,98258.45
2022-12-04T13:34:10.098Z,98254.63
2022-12-04T13:36:46.289Z,98254.30
2022-12-04T13:39:26.777Z,98253.61
2022-12-04T13:42:06.445Z,98257.98
2022-12-04T13:44:35.688Z,98251.23
2022-12-04T13:47:07.393Z,98247.05
2022-12-04T13:49:48.155Z,98251.73
2022-12-04T13:52:36.648Z,98256.41
2022-12-04T13:55:05.308Z,98250.64
2022-12-04T13:57:33.780Z,98254.61
2022-12-04T14:00:08.250Z,98253.75
2022-12-04T14:02:53.213Z,98249.05
2022-12-04T14:05:41.869Z,98245.56
2022-12-04T14:08:23.236Z,98245.90
2022-12-04T14:11:06.029Z,98246.76
2022-12-04T14:13:45.831Z,98238.92
2022-12-04T14:16:37.242Z,98238.20
2022-12-04T14:19:07.456Z,98239.88
2022-12-04T14:21:47.739Z,98244.00
2022-12-04T14:24:37.279Z,98247.43
2022-12-04T14:27:44.647Z,98244.09
2022-12-04T14:30:25.553Z,98238.86
2022-12-04T14:32:56.526Z,98242.45
2022-12-04T14:35:28.257Z,98249.36
2022-12-04T14:38:00.845Z,98250.02
2022-12-04T14:40:36.579Z,98248.60
2022-12-04T14:43:05.055Z,98243.71
2022-12-04T14:45:58.337Z,98240.02
2022-12-04T14:48:58.930Z,98242.05
2022-12-04T14:52:04.348Z,98243.56
2022-12-04T14:54:57.199Z,98249.54
2022-12-04T14:57:55.986Z,98247.02
2022-12-04T15:00:25.710Z,98254.23
2022-12-04T15:03:00.504Z,98260.91
2022-12-04T15:05:31.473Z,98265.55
2022-12-04T15:08:02.760Z,98268.80
2022-12-04T15:10:52.156Z,98272.57
2022-12-04T15:13:28.255Z,98273.06
2022-12-04T15:15:57.889Z,98271.14
2022-12-04T15:18:26.595Z,98269.92
2022-12-04T15:20:58.839Z,98266.85
2022-12-04T15:23:36.727Z,98265.31
2022-12-04T15:26:18.509Z,98267.54
2022-12-04T15:29:01.410Z,98274.08
2022-12-04T15:31:35.603Z,98275.80
2022-12-04T15:34:09.612Z,98279.25
2022-12-04T15:36:40.840Z,98277.00
2022-12-04T15:39:14.985Z,98279.42
2022-12-04T15:41:43.201Z,98281.80
2022-12-04T15:44:32.287Z,98285.58
2022-12-04T15:47:03.282Z,98279.98
2022-12-04T15:49:33.167Z,98275.72
2022-12-04T15:52:10.940Z,98282.10
2022-12-04T15:54:44.364Z,98288.16
2022-12-04T15:57:29.905Z,98285.39
2022-12-04T16:00:01.459Z,98287.47
2022-12-04T16:02:41.666Z,98288.52
2022-12-04T16:05:14.454Z,98284.02
2022-12-04T16:07:55.583Z,98282.28
2022-12-04T16:10:43.118Z,98278.30
2022-12-04T16:13:27.582Z,98279.38
2022-12-04T16:15:59.055Z,98280.45
2022-12-04T16:18:28.844Z,98279.95
2022-12-04T16:20:57.454Z,98279.05
2022-12-04T16:23:27.359Z,98278.52
2022-12-04T16:25:56.351Z,98276.55
2022-12-04T16:28:24.719Z,98275.45
2022-12-04T16:30:53.865Z,98274.73
2022-12-04T16:33:22.182Z,98278.48
2022-12-04T16:35:50.704Z,98279.30
2022-12-04T16:38:19.596Z,98283.20
2022-12-04T16:40:49.294Z,98289.55
2022-12-04T16:43:17.993Z,98295.77
2022-12-04T16:45:54.350Z,98296.83
2022-12-04T16:48:23.059Z,98294.61
2022-12-04T16:50:52.193Z,98296.72
2022-12-04T16:53:22.406Z,98293.99
2022-12-04T16:55:52.713Z,98291.27
2022-12-04T16:58:21.891Z,98291.45
2022-12-04T17:00:54.467Z,98284.21
2022-12-04T17:03:31.445Z,98284.06
2022-12-04T17:06:01.151Z,98289.59
2022-12-04T17:08:29.859Z,98290.25
2022-12-04T17:10:58.181Z,98285.53
2022-12-04T17:13:26.912Z,98291.00
2022-12-04T17:15:55.023Z,98286.77
2022-12-04T17:18:23.181Z,98287.59
2022-12-04T17:20:52.228Z,98291.74
2022-12-04T17:23:20.932Z,98287.90
2022-12-04T17:25:50.561Z,98292.73
2022-12-04T17:28:19.758Z,98293.42
2022-12-04T17:30:49.468Z,98295.01
2022-12-04T17:33:17.657Z,98296.79
2022-12-04T17:35:45.726Z,98299.45
2022-12-04T17:38:14.076Z,98300.70
2022-12-04T17:40:42.541Z,98299.17
2022-12-04T17:43:10.895Z,98293.98
2022-12-04T17:45:42.128Z,98297.59
2022-12-04T17:48:10.299Z,98300.90
2022-12-04T17:50:38.840Z,98298.04
2022-12-04T17:53:07.052Z,98298.27
2022-12-04T17:55:35.363Z,98302.60
2022-12-04T17:58:03.839Z,98305.55
2022-12-04T18:00:32.040Z,98304.34
2022-12-04T18:03:00.356Z,98302.31
2022-12-04T18:05:29.641Z,98299.41
2022-12-04T18:07:57.787Z,98295.78
2022-12-04T18:10:26.327Z,98297.34
2022-12-04T18:12:54.367Z,98298.20
2022-12-04T18:15:22.803Z,98299.68
2022-12-04T18:17:51.540Z,98300.46
2022-12-04T18:20:20.380Z,98302.30
2022-12-04T18:22:49.823Z,98307.60
2022-12-04T18:25:18.314Z,98307.57
2022-12-04T18:27:46.564Z,98304.25
2022-12-04T18:30:14.875Z,98303.52
2022-12-04T18:32:44.262Z,98306.77
2022-12-04T18:35:12.678Z,98306.59
2022-12-04T18:37:40.877Z,98306.06
2022-12-04T18:40:09.889Z,98306.58
2022-12-04T18:42:38.293Z,98306.27
2022-12-04T18:45:07.175Z,98310.10
2022-12-04T18:47:36.735Z,98310.27
2022-12-04T18:50:05.217Z,98312.20
2022-12-04T18:52:36.723Z,98313.60
2022-12-04T18:55:05.185Z,98312.54
2022-12-04T18:57:33.230Z,98314.90
2022-12-04T19:00:01.986Z,98318.69
2022-12-04T19:02:30.252Z,98311.23
2022-12-04T19:04:58.765Z,98306.23
2022-12-04T19:07:27.199Z,98314.36
2022-12-04T19:10:21.610Z,98313.70
2022-12-04T19:12:43.778Z,98312.67
2022-12-04T19:15:12.119Z,98312.33
2022-12-04T19:17:40.306Z,98310.23
2022-12-04T19:20:09.302Z,98308.82
2022-12-04T19:22:38.612Z,98308.06
2022-12-04T19:25:07.466Z,98311.09
2022-12-04T19:27:35.802Z,98315.18
2022-12-04T19:30:05.848Z,98313.94
2022-12-04T19:32:35.148Z,98314.26
2022-12-04T19:35:03.642Z,98317.66
2022-12-04T19:37:31.817Z,98320.76
2022-12-04T19:40:00.424Z,98325.72
2022-12-04T19:42:31.327Z,98324.64
2022-12-04T19:45:01.899Z,98327.05
2022-12-04T19:47:30.504Z,98329.13
2022-12-04T19:49:58.914Z,98329.95
2022-12-04T19:52:27.718Z,98333.56
2022-12-04T19:54:56.603Z,98338.89
2022-12-04T19:57:25.452Z,98336.02
2022-12-04T19:59:53.610Z,98343.44
2022-12-04T20:02:21.787Z,98344.09
2022-12-04T20:04:50.428Z,98347.70
2022-12-04T20:07:19.984Z,98350.63
2022-12-04T20:09:52.460Z,98354.61
2022-12-04T20:12:21.300Z,98353.20
2022-12-04T20:14:49.409Z,98353.70
2022-12-04T20:17:17.549Z,98359.94
2022-12-04T20:19:46.131Z,98360.77
2022-12-04T20:22:14.308Z,98364.18
2022-12-04T20:24:43.115Z,98362.75
2022-12-04T20:27:11.207Z,98361.66
2022-12-04T20:29:39.546Z,98365.94
2022-12-04T20:32:07.667Z,98365.20
2022-12-04T20:34:43.023Z,98369.69
2022-12-04T20:37:12.183Z,98367.55
2022-12-04T20:39:40.425Z,98367.21
2022-12-04T20:42:08.451Z,98361.71
2022-12-04T20:44:36.517Z,98366.94
2022-12-04T20:47:04.795Z,98366.96
2022-12-04T20:49:33.069Z,98366.61
2022-12-04T20:52:01.557Z,98367.30
2022-12-04T20:54:29.911Z,98364.16
2022-12-04T20:56:58.002Z,98365.52
2022-12-04T20:59:26.149Z,98368.62
2022-12-04T21:01:55.466Z,98372.08
2022-12-04T21:04:23.907Z,98371.55
2022-12-04T21:06:53.320Z,98372.27
2022-12-04T21:09:24.888Z,98371.91
2022-12-04T21:11:55.808Z,98372.55
2022-12-04T21:14:48.602Z,98374.73
2022-12-04T21:17:19.551Z,98373.96
2022-12-04T21:19:50.558Z,98374.55
2022-12-04T21:22:20.107Z,98375.52
2022-12-04T21:24:48.625Z,98373.55
2022-12-04T21:27:21.036Z,98374.16
2022-12-04T21:29:50.677Z,98376.19
2022-12-04T21:32:20.781Z,98379.06
2022-12-04T21:34:49.618Z,98379.73
2022-12-04T21:37:18.252Z,98379.06
2022-12-04T21:39:46.882Z,98378.40
2022-12-04T21:42:34.067Z,98382.95
2022-12-04T21:45:04.490Z,98378.23
2022-12-04T21:47:33.351Z,98380.20
2022-12-04T21:50:01.820Z,98382.74
2022-12-04T21:52:30.052Z,98381.08
2022-12-04T21:54:58.464Z,98383.05
2022-12-04T21:57:28.228Z,98379.48
2022-12-04T21:59:56.899Z,98379.71
2022-12-04T22:02:25.737Z,98376.83
2022-12-04T22:04:54.491Z,98374.23
2022-12-04T22:07:22.699Z,98371.78
2022-12-04T22:09:51.451Z,98365.69
2022-12-04T22:12:47.724Z,98365.29
2022-12-04T22:15:08.200Z,98370.87
2022-12-04T22:17:36.269Z,98372.27
2022-12-04T22:20:05.483Z,98367.96
2022-12-04T22:22:37.203Z,98363.98
2022-12-04T22:25:05.766Z,98364.30
2022-12-04T22:27:33.779Z,98367.73
2022-12-04T22:30:02.710Z,98370.80
2022-12-04T22:32:31.129Z,98371.83
2022-12-04T22:34:59.741Z,98375.64
2022-12-04T22:37:28.242Z,98381.04
2022-12-04T22:39:57.093Z,98377.15
2022-12-04T22:42:26.298Z,98383.64
2022-12-04T22:44:54.932Z,98387.88
2022-12-04T22:47:23.140Z,98386.10
2022-12-04T22:49:53.280Z,98381.94
2022-12-04T22:52:22.564Z,98377.45
2022-12-04T22:54:51.951Z,98380.23
2022-12-04T22:57:19.900Z,98386.34
2022-12-04T22:59:47.856Z,98386.71
2022-12-04T23:02:16.671Z,98384.63
2022-12-04T23:04:45.569Z,98384.21
2022-12-04T23:07:13.760Z,98393.48
2022-12-04T23:09:42.138Z,98394.80
2022-12-04T23:12:10.620Z,98395.73
2022-12-04T23:14:38.682Z,98395.14
2022-12-04T23:17:06.774Z,98395.45
2022-12-04T23:19:34.748Z,98393.32
2022-12-04T23:22:02.846Z,98386.34
2022-12-04T23:24:30.901Z,98381.77
2022-12-04T23:26:58.981Z,98381.38
2022-12-04T23:29:51.943Z,98385.45
2022-12-04T23:32:15.244Z,98386.48
2022-12-04T23:34:43.461Z,98387.02
2022-12-04T23:37:11.490Z,98388.84
2022-12-04T23:39:39.554Z,98390.98
2022-12-04T23:42:07.626Z,98392.88
2022-12-04T23:44:35.986Z,98393.69
2022-12-04T23:47:04.438Z,98391.92
2022-12-04T23:49:32.768Z,98393.40
2022-12-04T23:52:00.844Z,98395.76
2022-12-04T23:54:30.426Z,98396.30
2022-12-04T23:56:58.473Z,98398.60
2022-12-04T23:59:26.569Z,98396.37
